SLJE/SJS METAR and TAF weather

Enter ICAO airport designator
Station Type Date Time Source
SLJE METAR 2019/08/19 22:00 UTC NOAA

SLJE 192200Z 18005KT 9999 NSC 28/11 Q1018


Station Type Date Time Source
SLJE Decoded METAR 2019/08/19 22:00 UTC NOAA

San Jose De Chiquitos, Bolivia (SLJE) 17-48S 060-44W
Aug 19, 2019 - 06:00 PM EDT / 2019.08.19 2200 UTC
Wind: from the S (180 degrees) at 6 MPH (5 KT):0
Visibility: greater than 7 mile(s):0
Temperature: 82 F (28 C)
Dew Point: 51 F (11 C)
Relative Humidity: 34%
Pressure (altimeter): 30.06 in. Hg (1018 hPa)
ob: SLJE 192200Z 18005KT 9999 NSC 28/11 Q1018
cycle: 22

Station Type Date Time Source
SLJE TAF 2009/01/07 11:00 UTC NOAA

METAR SLJE 071100Z 00000KT 9999 SKC 21/18 Q1014

Example: see airport list